This is the latest recevied weather packets stored in our database for station/object EA1RCG-11. If no packets are shown the sender has not sent any weather packets the latest 10 day(s).
| Time | Temp. | Humidity | Pressure | Rain* | Wind** | Luminosity | Snow |
|---|---|---|---|---|---|---|---|
| 1787562427 | 43.89° C | 34% | 972.9 hPa | - | - | - | - |
| 1787560627 | 33.33° C | 44% | 972.5 hPa | - | - | - | - |
| 1787558827 | 27.22° C | 52% | 972.2 hPa | - | - | - | - |
| 1787557027 | 46.67° C | 31% | 972.5 hPa | - | - | - | - |
| 1787555227 | 30.56° C | 43% | 972.7 hPa | - | - | - | - |
| 1787553427 | 18.89° C | 61% | 973.2 hPa | - | - | - | - |
| 1787551626 | 18.33° C | 61% | 972.9 hPa | - | - | - | - |
| 1787549826 | 18.89° C | 61% | 973.1 hPa | - | - | - | - |
| 1787548026 | 18.89° C | 61% | 973.4 hPa | - | - | - | - |
| 1787546226 | 18.89° C | 60% | 973.6 hPa | - | - | - | - |
| 1787544426 | 19.44° C | 61% | 973.6 hPa | - | - | - | - |
| 1787542626 | 19.44° C | 60% | 973.9 hPa | - | - | - | - |
| 1787540826 | 19.44° C | 60% | 974 hPa | - | - | - | - |
| 1787539026 | 19.44° C | 60% | 974.3 hPa | - | - | - | - |
| 1787537226 | 19.44° C | 60% | 974.7 hPa | - | - | - | - |
| 1787535425 | 20° C | 60% | 974.7 hPa | - | - | - | - |
| 1787533625 | 20° C | 60% | 974.9 hPa | - | - | - | - |
| 1787531825 | 20° C | 59% | 975 hPa | - | - | - | - |
| 1787530025 | 20° C | 60% | 975.4 hPa | - | - | - | - |
| 1787528225 | 20.56° C | 59% | 975.8 hPa | - | - | - | - |
| 1787526425 | 20.56° C | 59% | 976 hPa | - | - | - | - |
| 1787524625 | 21.11° C | 59% | 976.1 hPa | - | - | - | - |
| 1787522825 | 21.11° C | 58% | 976.2 hPa | - | - | - | - |
| 1787521025 | 21.67° C | 58% | 976.5 hPa | - | - | - | - |
| 1787519225 | 22.22° C | 58% | 976.3 hPa | - | - | - | - |
* Rain since midnight (hover to see other rain measurements)
** Current wind speed in m/s (hover to see current wind gust speed)